sensor_id;sensor_type;location;lat;lon;timestamp;pressure;altitude;pressure_sealevel;temperature;humidity
83037;BME280;72849;48.838;2.402;2023-09-18T10:56:46;100287.81;;;23.25;53.06
83037;BME280;72849;48.838;2.402;2023-09-18T10:59:14;100292.31;;;23.12;52.57
83037;BME280;72849;48.838;2.402;2023-09-18T11:01:39;100264.88;;;22.92;53.46
83037;BME280;72849;48.838;2.402;2023-09-18T11:04:06;100294.13;;;22.98;53.43
83037;BME280;72849;48.838;2.402;2023-09-18T11:07:20;100303.66;;;22.90;53.48
83037;BME280;72849;48.838;2.402;2023-09-18T11:09:46;100300.47;;;22.83;53.38
83037;BME280;72849;48.838;2.402;2023-09-18T11:12:14;100312.00;;;22.85;53.74
83037;BME280;72849;48.838;2.402;2023-09-18T11:15:00;100306.16;;;22.78;53.96
83037;BME280;72849;48.838;2.402;2023-09-18T11:22:38;100291.25;;;22.73;54.28
83037;BME280;72849;48.838;2.402;2023-09-18T11:27:55;100249.16;;;22.57;53.56
83037;BME280;72849;48.838;2.402;2023-09-18T11:30:21;100291.81;;;22.78;53.76
83037;BME280;72849;48.838;2.402;2023-09-18T11:32:47;100267.00;;;22.73;54.14
83037;BME280;72849;48.838;2.402;2023-09-18T11:35:12;100274.66;;;22.79;53.65
83037;BME280;72849;48.838;2.402;2023-09-18T11:37:38;100293.13;;;22.85;53.02
83037;BME280;72849;48.838;2.402;2023-09-18T11:40:04;100291.31;;;22.85;52.81
83037;BME280;72849;48.838;2.402;2023-09-18T11:42:31;100269.50;;;22.76;52.42
83037;BME280;72849;48.838;2.402;2023-09-18T11:44:57;100287.47;;;22.90;53.12
83037;BME280;72849;48.838;2.402;2023-09-18T11:47:24;100272.75;;;22.81;52.94
83037;BME280;72849;48.838;2.402;2023-09-18T11:49:54;100255.28;;;22.74;53.47
83037;BME280;72849;48.838;2.402;2023-09-18T11:52:24;100261.50;;;22.89;52.76
83037;BME280;72849;48.838;2.402;2023-09-18T11:54:50;100240.03;;;22.87;52.39
83037;BME280;72849;48.838;2.402;2023-09-18T11:57:17;100279.88;;;23.09;52.54
83037;BME280;72849;48.838;2.402;2023-09-18T11:59:43;100241.75;;;22.88;52.13
83037;BME280;72849;48.838;2.402;2023-09-18T12:02:09;100254.13;;;23.05;51.92
83037;BME280;72849;48.838;2.402;2023-09-18T12:04:35;100260.72;;;23.14;52.31
83037;BME280;72849;48.838;2.402;2023-09-18T12:07:04;100252.31;;;23.18;52.18
83037;BME280;72849;48.838;2.402;2023-09-18T12:09:30;100225.13;;;23.21;51.64
83037;BME280;72849;48.838;2.402;2023-09-18T12:11:58;100268.56;;;23.56;50.69
83037;BME280;72849;48.838;2.402;2023-09-18T12:14:23;100258.22;;;23.63;49.87
83037;BME280;72849;48.838;2.402;2023-09-18T12:16:49;100244.25;;;23.56;49.97
83037;BME280;72849;48.838;2.402;2023-09-18T12:19:19;100243.09;;;23.60;49.95
83037;BME280;72849;48.838;2.402;2023-09-18T12:21:47;100221.16;;;23.52;50.48
83037;BME280;72849;48.838;2.402;2023-09-18T12:24:25;100222.88;;;23.53;49.18
83037;BME280;72849;48.838;2.402;2023-09-18T12:26:52;100257.06;;;23.67;48.46
83037;BME280;72849;48.838;2.402;2023-09-18T12:29:19;100244.72;;;23.63;48.32
83037;BME280;72849;48.838;2.402;2023-09-18T12:31:44;100255.22;;;23.68;48.86
83037;BME280;72849;48.838;2.402;2023-09-18T12:34:19;100240.59;;;23.57;48.60
83037;BME280;72849;48.838;2.402;2023-09-18T12:36:49;100219.00;;;23.45;48.65
83037;BME280;72849;48.838;2.402;2023-09-18T12:39:15;100220.09;;;23.42;49.04
83037;BME280;72849;48.838;2.402;2023-09-18T12:41:42;100251.19;;;23.60;49.34
83037;BME280;72849;48.838;2.402;2023-09-18T12:44:08;100243.19;;;23.59;49.28
83037;BME280;72849;48.838;2.402;2023-09-18T12:46:35;100223.53;;;23.44;49.43
83037;BME280;72849;48.838;2.402;2023-09-18T12:49:21;100235.84;;;23.48;49.83
83037;BME280;72849;48.838;2.402;2023-09-18T12:52:01;100251.09;;;23.62;49.51
83037;BME280;72849;48.838;2.402;2023-09-18T12:54:37;100246.22;;;23.54;50.44
83037;BME280;72849;48.838;2.402;2023-09-18T12:57:04;100255.66;;;23.61;53.55
83037;BME280;72849;48.838;2.402;2023-09-18T12:59:32;100251.38;;;23.57;53.18
83037;BME280;72849;48.838;2.402;2023-09-18T13:01:58;100237.22;;;23.41;52.03
83037;BME280;72849;48.838;2.402;2023-09-18T13:04:24;100249.88;;;23.53;52.28
83037;BME280;72849;48.838;2.402;2023-09-18T13:07:05;100244.03;;;23.59;51.97
83037;BME280;72849;48.838;2.402;2023-09-18T13:09:31;100242.16;;;23.61;51.33
83037;BME280;72849;48.838;2.402;2023-09-18T13:11:57;100255.84;;;23.84;51.57
83037;BME280;72849;48.838;2.402;2023-09-18T13:14:23;100239.13;;;23.92;51.53
83037;BME280;72849;48.838;2.402;2023-09-18T13:16:49;100249.56;;;24.09;51.29
83037;BME280;72849;48.838;2.402;2023-09-18T13:19:14;100232.16;;;24.13;50.65
83037;BME280;72849;48.838;2.402;2023-09-18T13:21:46;100240.03;;;24.29;50.25
83037;BME280;72849;48.838;2.402;2023-09-18T13:24:30;100217.03;;;24.23;50.70
83037;BME280;72849;48.838;2.402;2023-09-18T13:26:56;100229.94;;;24.43;50.08
83037;BME280;72849;48.838;2.402;2023-09-18T13:29:24;100255.38;;;24.65;49.68
83037;BME280;72849;48.838;2.402;2023-09-18T13:31:52;100251.66;;;24.79;50.13
83037;BME280;72849;48.838;2.402;2023-09-18T13:34:17;100253.53;;;24.89;49.26
83037;BME280;72849;48.838;2.402;2023-09-18T13:36:44;100248.06;;;25.02;48.84
83037;BME280;72849;48.838;2.402;2023-09-18T13:39:11;100215.13;;;24.97;47.51
83037;BME280;72849;48.838;2.402;2023-09-18T13:41:37;100240.78;;;25.15;46.70
83037;BME280;72849;48.838;2.402;2023-09-18T13:44:02;100247.59;;;25.32;46.94
83037;BME280;72849;48.838;2.402;2023-09-18T13:46:27;100212.69;;;25.29;47.25
83037;BME280;72849;48.838;2.402;2023-09-18T16:24:23;100072.56;;;21.71;49.07
83037;BME280;72849;48.838;2.402;2023-09-18T16:29:25;100340.53;;;23.16;49.09
83037;BME280;72849;48.838;2.402;2023-09-18T16:31:51;100354.88;;;23.17;48.63
83037;BME280;72849;48.838;2.402;2023-09-18T16:34:17;100346.25;;;23.12;48.71
83037;BME280;72849;48.838;2.402;2023-09-18T16:36:42;100337.50;;;23.08;48.61
83037;BME280;72849;48.838;2.402;2023-09-18T16:39:07;100317.69;;;22.95;49.50
83037;BME280;72849;48.838;2.402;2023-09-18T16:41:33;100321.19;;;23.09;48.88
83037;BME280;72849;48.838;2.402;2023-09-18T16:43:58;100297.59;;;22.86;48.84
83037;BME280;72849;48.838;2.402;2023-09-18T16:46:24;100324.88;;;23.08;48.80
83037;BME280;72849;48.838;2.402;2023-09-18T16:48:49;100293.72;;;22.90;48.84
83037;BME280;72849;48.838;2.402;2023-09-18T16:51:15;100342.69;;;23.11;48.86
83037;BME280;72849;48.838;2.402;2023-09-18T16:53:40;100340.06;;;23.09;48.86
83037;BME280;72849;48.838;2.402;2023-09-18T16:56:05;100343.75;;;23.08;48.99
83037;BME280;72849;48.838;2.402;2023-09-18T16:58:31;100321.81;;;23.00;49.41
83037;BME280;72849;48.838;2.402;2023-09-18T17:00:56;100323.00;;;22.96;49.12
83037;BME280;72849;48.838;2.402;2023-09-18T17:03:22;100317.59;;;22.96;48.97
83037;BME280;72849;48.838;2.402;2023-09-18T17:05:47;100361.88;;;23.06;49.10
83037;BME280;72849;48.838;2.402;2023-09-18T17:08:13;100365.38;;;22.94;49.23
83037;BME280;72849;48.838;2.402;2023-09-18T17:10:38;100365.16;;;22.83;49.75
83037;BME280;72849;48.838;2.402;2023-09-18T17:13:05;100308.25;;;22.46;50.01
83037;BME280;72849;48.838;2.402;2023-09-18T17:15:30;100375.69;;;22.73;50.10
83037;BME280;72849;48.838;2.402;2023-09-18T17:17:59;100376.56;;;22.60;50.66
83037;BME280;72849;48.838;2.402;2023-09-18T17:20:28;100390.34;;;22.55;51.15
83037;BME280;72849;48.838;2.402;2023-09-18T17:22:53;100392.44;;;22.50;50.97
83037;BME280;72849;48.838;2.402;2023-09-18T17:25:18;100380.41;;;22.41;51.31
83037;BME280;72849;48.838;2.402;2023-09-18T17:27:44;100353.69;;;22.24;51.49
83037;BME280;72849;48.838;2.402;2023-09-18T17:30:10;100358.19;;;22.23;51.99
83037;BME280;72849;48.838;2.402;2023-09-18T17:32:35;100387.16;;;22.34;51.96
83037;BME280;72849;48.838;2.402;2023-09-18T17:35:02;100360.72;;;21.96;52.22
83037;BME280;72849;48.838;2.402;2023-09-18T17:37:27;100369.19;;;22.04;52.54
83037;BME280;72849;48.838;2.402;2023-09-18T17:39:54;100428.88;;;22.27;52.87
83037;BME280;72849;48.838;2.402;2023-09-18T17:42:20;100406.88;;;22.04;53.28
83037;BME280;72849;48.838;2.402;2023-09-18T17:44:45;100423.72;;;22.08;53.51
83037;BME280;72849;48.838;2.402;2023-09-18T17:47:10;100403.56;;;21.85;61.17
83037;BME280;72849;48.838;2.402;2023-09-18T17:49:36;100433.88;;;21.59;64.94
83037;BME280;72849;48.838;2.402;2023-09-18T17:52:02;100446.97;;;21.17;65.40
83037;BME280;72849;48.838;2.402;2023-09-18T17:54:34;60323.56;;;-144.41;100.00
83037;BME280;72849;48.838;2.402;2023-09-18T17:56:59;60323.56;;;-144.41;100.00
83037;BME280;72849;48.838;2.402;2023-09-18T17:59:25;60323.56;;;-144.41;100.00
83037;BME280;72849;48.838;2.402;2023-09-18T18:01:50;60323.56;;;-144.41;100.00
83037;BME280;72849;48.838;2.402;2023-09-18T18:09:13;60323.56;;;-144.41;100.00
83037;BME280;72849;48.838;2.402;2023-09-18T18:11:38;60323.56;;;-144.41;100.00
83037;BME280;72849;48.838;2.402;2023-09-18T18:14:03;60323.56;;;-144.41;100.00
83037;BME280;72849;48.838;2.402;2023-09-18T18:16:30;60323.56;;;-144.41;100.00
83037;BME280;72849;48.838;2.402;2023-09-18T18:18:56;60323.56;;;-144.41;100.00
83037;BME280;72849;48.838;2.402;2023-09-18T18:21:22;60323.56;;;-144.41;100.00
83037;BME280;72849;48.838;2.402;2023-09-18T18:23:47;60323.56;;;-144.41;100.00
83037;BME280;72849;48.838;2.402;2023-09-18T18:26:16;60323.56;;;-144.41;100.00
83037;BME280;72849;48.838;2.402;2023-09-18T18:28:43;60323.56;;;-144.41;100.00
83037;BME280;72849;48.838;2.402;2023-09-18T18:31:08;60323.56;;;-144.41;100.00
83037;BME280;72849;48.838;2.402;2023-09-18T18:33:35;60323.56;;;-144.41;100.00
83037;BME280;72849;48.838;2.402;2023-09-18T18:36:00;60323.56;;;-144.41;100.00
83037;BME280;72849;48.838;2.402;2023-09-18T18:38:25;60323.56;;;-144.41;100.00
83037;BME280;72849;48.838;2.402;2023-09-18T18:40:59;60323.56;;;-144.41;100.00
83037;BME280;72849;48.838;2.402;2023-09-18T18:43:25;60323.56;;;-144.41;100.00
83037;BME280;72849;48.838;2.402;2023-09-18T18:45:55;60323.56;;;-144.41;100.00
83037;BME280;72849;48.838;2.402;2023-09-18T18:48:23;60323.56;;;-144.41;100.00
83037;BME280;72849;48.838;2.402;2023-09-18T18:50:49;60323.56;;;-144.41;100.00
83037;BME280;72849;48.838;2.402;2023-09-18T18:53:14;60323.56;;;-144.41;100.00
83037;BME280;72849;48.838;2.402;2023-09-18T18:55:39;60323.56;;;-144.41;100.00
83037;BME280;72849;48.838;2.402;2023-09-18T18:58:04;60323.56;;;-144.41;100.00
83037;BME280;72849;48.838;2.402;2023-09-18T19:00:33;60323.56;;;-144.41;100.00
83037;BME280;72849;48.838;2.402;2023-09-18T19:02:58;60323.56;;;-144.41;100.00
83037;BME280;72849;48.838;2.402;2023-09-18T19:05:30;60323.56;;;-144.41;100.00
83037;BME280;72849;48.838;2.402;2023-09-18T19:07:56;60323.56;;;-144.41;100.00
83037;BME280;72849;48.838;2.402;2023-09-18T19:10:21;60323.56;;;-144.41;100.00
83037;BME280;72849;48.838;2.402;2023-09-18T19:12:47;60323.56;;;-144.41;100.00
83037;BME280;72849;48.838;2.402;2023-09-18T19:15:12;60323.56;;;-144.41;100.00
83037;BME280;72849;48.838;2.402;2023-09-18T19:17:37;60323.56;;;-144.41;100.00
83037;BME280;72849;48.838;2.402;2023-09-18T19:20:03;60323.56;;;-144.41;100.00
83037;BME280;72849;48.838;2.402;2023-09-18T19:22:29;60323.56;;;-144.41;100.00
83037;BME280;72849;48.838;2.402;2023-09-18T19:24:55;60323.56;;;-144.41;100.00
83037;BME280;72849;48.838;2.402;2023-09-18T19:27:20;60323.56;;;-144.41;100.00
83037;BME280;72849;48.838;2.402;2023-09-18T19:29:45;60323.56;;;-144.41;100.00
83037;BME280;72849;48.838;2.402;2023-09-18T19:32:11;60323.56;;;-144.41;100.00
83037;BME280;72849;48.838;2.402;2023-09-18T19:34:37;60323.56;;;-144.41;100.00
83037;BME280;72849;48.838;2.402;2023-09-18T19:37:03;60323.56;;;-144.41;100.00
83037;BME280;72849;48.838;2.402;2023-09-18T19:40:20;100607.94;;;23.38;62.11
83037;BME280;72849;48.838;2.402;2023-09-18T19:42:46;100609.03;;;23.36;62.59
83037;BME280;72849;48.838;2.402;2023-09-18T19:45:12;100617.19;;;23.34;62.71
83037;BME280;72849;48.838;2.402;2023-09-18T19:47:37;100625.75;;;23.41;62.54
83037;BME280;72849;48.838;2.402;2023-09-18T19:50:03;100637.53;;;23.40;63.09
83037;BME280;72849;48.838;2.402;2023-09-18T19:52:29;100638.31;;;23.42;64.96
83037;BME280;72849;48.838;2.402;2023-09-18T19:54:56;100633.97;;;23.40;64.38
83037;BME280;72849;48.838;2.402;2023-09-18T19:57:22;100639.56;;;23.36;64.19
83037;BME280;72849;48.838;2.402;2023-09-18T19:59:47;100650.44;;;23.35;65.09
83037;BME280;72849;48.838;2.402;2023-09-18T20:02:15;100657.75;;;23.33;64.09
83037;BME280;72849;48.838;2.402;2023-09-18T20:04:41;100657.97;;;23.30;65.13
83037;BME280;72849;48.838;2.402;2023-09-18T20:07:06;100649.94;;;23.28;63.99
83037;BME280;72849;48.838;2.402;2023-09-18T20:09:33;100658.91;;;23.29;64.90
83037;BME280;72849;48.838;2.402;2023-09-18T20:11:58;100668.94;;;23.27;63.87
83037;BME280;72849;48.838;2.402;2023-09-18T20:14:24;100667.22;;;23.26;64.23
83037;BME280;72849;48.838;2.402;2023-09-18T20:16:49;100678.00;;;23.26;64.05
83037;BME280;72849;48.838;2.402;2023-09-18T20:19:14;100682.53;;;23.25;64.11
83037;BME280;72849;48.838;2.402;2023-09-18T20:21:41;100683.41;;;23.26;63.31
83037;BME280;72849;48.838;2.402;2023-09-18T20:24:09;100682.53;;;23.25;63.54
83037;BME280;72849;48.838;2.402;2023-09-18T20:26:34;100681.56;;;23.26;63.89
83037;BME280;72849;48.838;2.402;2023-09-18T20:28:59;100683.41;;;23.26;63.70
83037;BME280;72849;48.838;2.402;2023-09-18T20:31:25;100686.97;;;23.26;64.35
83037;BME280;72849;48.838;2.402;2023-09-18T20:33:50;100696.78;;;23.27;63.73
83037;BME280;72849;48.838;2.402;2023-09-18T20:36:16;100698.63;;;23.27;63.48
83037;BME280;72849;48.838;2.402;2023-09-18T20:38:41;100700.44;;;23.26;63.64
83037;BME280;72849;48.838;2.402;2023-09-18T20:41:06;100699.59;;;23.26;63.70
83037;BME280;72849;48.838;2.402;2023-09-18T20:43:31;100702.28;;;23.26;62.66
83037;BME280;72849;48.838;2.402;2023-09-18T20:45:59;100682.41;;;23.13;62.35
83037;BME280;72849;48.838;2.402;2023-09-18T20:48:26;100703.16;;;23.26;61.56
83037;BME280;72849;48.838;2.402;2023-09-18T20:50:51;100676.06;;;23.14;61.50
83037;BME280;72849;48.838;2.402;2023-09-18T20:53:16;100683.56;;;23.23;61.36
83037;BME280;72849;48.838;2.402;2023-09-18T20:55:43;100699.97;;;23.34;61.52
83037;BME280;72849;48.838;2.402;2023-09-18T20:58:09;100688.09;;;23.22;60.77
83037;BME280;72849;48.838;2.402;2023-09-18T21:00:35;100713.19;;;23.38;60.67
83037;BME280;72849;48.838;2.402;2023-09-18T21:03:04;100712.50;;;23.35;60.64
83037;BME280;72849;48.838;2.402;2023-09-18T21:05:29;100712.59;;;23.33;60.36
83037;BME280;72849;48.838;2.402;2023-09-18T21:07:55;100724.75;;;23.41;60.06
83037;BME280;72849;48.838;2.402;2023-09-18T21:10:20;100724.22;;;23.20;59.50
83037;BME280;72849;48.838;2.402;2023-09-18T21:12:46;100715.19;;;22.91;56.16
83037;BME280;72849;48.838;2.402;2023-09-18T21:15:11;100710.38;;;22.50;56.51
83037;BME280;72849;48.838;2.402;2023-09-18T21:17:37;100710.47;;;22.48;57.73
83037;BME280;72849;48.838;2.402;2023-09-18T21:20:03;100726.03;;;22.43;57.28
83037;BME280;72849;48.838;2.402;2023-09-18T21:22:30;100731.44;;;22.43;57.89
83037;BME280;72849;48.838;2.402;2023-09-18T21:24:56;100744.63;;;22.32;55.91
83037;BME280;72849;48.838;2.402;2023-09-18T21:27:22;100747.34;;;22.32;58.74
83037;BME280;72849;48.838;2.402;2023-09-18T21:29:47;100757.50;;;22.27;58.31
83037;BME280;72849;48.838;2.402;2023-09-18T21:32:13;100753.22;;;22.23;58.74
83037;BME280;72849;48.838;2.402;2023-09-18T21:34:40;100754.44;;;22.33;57.79
83037;BME280;72849;48.838;2.402;2023-09-18T21:37:05;100780.78;;;22.12;57.52
83037;BME280;72849;48.838;2.402;2023-09-18T21:39:31;100769.03;;;22.13;56.61
83037;BME280;72849;48.838;2.402;2023-09-18T21:41:56;100775.19;;;22.15;58.07
83037;BME280;72849;48.838;2.402;2023-09-18T21:44:21;100781.78;;;22.10;57.91
83037;BME280;72849;48.838;2.402;2023-09-18T21:46:46;100782.97;;;22.04;58.11
83037;BME280;72849;48.838;2.402;2023-09-18T21:49:11;100787.13;;;22.11;60.65
83037;BME280;72849;48.838;2.402;2023-09-18T21:51:37;100787.34;;;22.07;57.50
83037;BME280;72849;48.838;2.402;2023-09-18T21:54:06;100786.38;;;22.08;56.49
83037;BME280;72849;48.838;2.402;2023-09-18T21:56:32;100794.78;;;22.01;55.81
83037;BME280;72849;48.838;2.402;2023-09-18T21:58:58;100797.00;;;22.11;58.07
83037;BME280;72849;48.838;2.402;2023-09-18T22:01:23;100792.16;;;22.17;55.99
83037;BME280;72849;48.838;2.402;2023-09-18T22:03:48;100808.75;;;22.25;57.20
83037;BME280;72849;48.838;2.402;2023-09-18T22:06:13;100804.91;;;22.14;55.51
83037;BME280;72849;48.838;2.402;2023-09-18T22:08:38;100808.31;;;22.17;56.47
83037;BME280;72849;48.838;2.402;2023-09-18T22:11:04;100799.34;;;22.17;54.63
83037;BME280;72849;48.838;2.402;2023-09-18T22:13:31;100807.50;;;22.15;53.76
83037;BME280;72849;48.838;2.402;2023-09-18T22:15:56;100809.19;;;22.18;54.96
83037;BME280;72849;48.838;2.402;2023-09-18T22:18:21;100809.25;;;22.16;55.70
83037;BME280;72849;48.838;2.402;2023-09-18T22:20:46;100816.75;;;22.11;54.15
83037;BME280;72849;48.838;2.402;2023-09-18T22:23:12;100828.81;;;22.20;55.22
83037;BME280;72849;48.838;2.402;2023-09-18T22:25:38;100833.25;;;22.21;54.36
83037;BME280;72849;48.838;2.402;2023-09-18T22:28:04;100836.19;;;22.16;55.10
83037;BME280;72849;48.838;2.402;2023-09-18T22:30:31;100843.66;;;22.11;54.60
83037;BME280;72849;48.838;2.402;2023-09-18T22:32:56;100847.13;;;22.13;54.81
83037;BME280;72849;48.838;2.402;2023-09-18T22:35:22;100848.19;;;21.93;54.11
83037;BME280;72849;48.838;2.402;2023-09-18T22:38:11;100851.56;;;21.97;54.08
83037;BME280;72849;48.838;2.402;2023-09-18T22:56:27;100876.72;;;22.30;53.16
83037;BME280;72849;48.838;2.402;2023-09-18T22:58:52;100883.66;;;22.35;53.59
83037;BME280;72849;48.838;2.402;2023-09-18T23:01:18;100887.34;;;22.16;52.86
83037;BME280;72849;48.838;2.402;2023-09-18T23:03:44;100892.44;;;22.05;52.61
83037;BME280;72849;48.838;2.402;2023-09-18T23:06:12;100889.56;;;21.91;53.27
83037;BME280;72849;48.838;2.402;2023-09-18T23:08:37;100896.47;;;21.96;53.27
83037;BME280;72849;48.838;2.402;2023-09-18T23:11:06;100898.25;;;21.80;53.34
83037;BME280;72849;48.838;2.402;2023-09-18T23:13:31;100905.38;;;21.81;53.13
83037;BME280;72849;48.838;2.402;2023-09-18T23:15:57;100907.66;;;21.89;53.98
83037;BME280;72849;48.838;2.402;2023-09-18T23:18:23;100905.59;;;21.94;53.39
83037;BME280;72849;48.838;2.402;2023-09-18T23:20:49;100903.69;;;21.96;53.21
83037;BME280;72849;48.838;2.402;2023-09-18T23:23:16;100906.53;;;21.93;53.46
83037;BME280;72849;48.838;2.402;2023-09-18T23:25:41;100910.44;;;21.87;52.96
83037;BME280;72849;48.838;2.402;2023-09-18T23:28:10;100884.59;;;21.66;52.75
83037;BME280;72849;48.838;2.402;2023-09-18T23:30:35;100909.00;;;21.80;52.58
83037;BME280;72849;48.838;2.402;2023-09-18T23:33:02;100915.50;;;21.76;53.34
83037;BME280;72849;48.838;2.402;2023-09-18T23:35:28;100923.38;;;21.96;53.37
83037;BME280;72849;48.838;2.402;2023-09-18T23:37:59;100927.41;;;22.22;53.92
83037;BME280;72849;48.838;2.402;2023-09-18T23:40:25;100927.63;;;22.35;53.53
83037;BME280;72849;48.838;2.402;2023-09-18T23:42:54;100919.69;;;22.49;53.63
83037;BME280;72849;48.838;2.402;2023-09-18T23:45:21;100882.50;;;22.23;53.10
83037;BME280;72849;48.838;2.402;2023-09-18T23:47:48;100935.88;;;22.49;51.70
83037;BME280;72849;48.838;2.402;2023-09-18T23:50:17;100932.69;;;22.41;52.36
83037;BME280;72849;48.838;2.402;2023-09-18T23:52:44;100943.94;;;22.49;52.08
83037;BME280;72849;48.838;2.402;2023-09-18T23:55:10;100941.50;;;22.45;50.87
83037;BME280;72849;48.838;2.402;2023-09-18T23:57:35;100947.13;;;22.40;52.86
